createdAt,value
2022-09-28T00:01:25.433Z,4.57
2022-09-28T00:03:58.188Z,4.40
2022-09-28T00:06:28.845Z,4.93
2022-09-28T00:08:57.358Z,4.43
2022-09-28T00:11:28.114Z,4.47
2022-09-28T00:14:00.112Z,5.30
2022-09-28T00:16:31.876Z,4.33
2022-09-28T00:19:02.066Z,4.50
2022-09-28T00:21:33.644Z,4.27
2022-09-28T00:24:15.238Z,5.07
2022-09-28T00:26:47.995Z,3.63
2022-09-28T00:29:23.867Z,5.10
2022-09-28T00:31:59.724Z,4.03
2022-09-28T00:34:31.956Z,4.60
2022-09-28T00:37:01.338Z,4.80
2022-09-28T00:39:31.605Z,5.63
2022-09-28T00:42:00.734Z,4.53
2022-09-28T00:44:47.394Z,5.67
2022-09-28T00:47:28.067Z,4.97
2022-09-28T00:50:02.837Z,6.17
2022-09-28T00:52:37.059Z,5.37
2022-09-28T00:55:09.320Z,5.77
2022-09-28T00:57:39.063Z,5.17
2022-09-28T01:00:09.184Z,6.00
2022-09-28T01:02:38.006Z,5.20
2022-09-28T01:05:10.979Z,5.40
2022-09-28T01:07:40.074Z,5.23
2022-09-28T01:10:10.020Z,5.70
2022-09-28T01:12:38.471Z,4.90
2022-09-28T01:15:08.367Z,5.87
2022-09-28T01:17:56.790Z,4.70
2022-09-28T01:21:01.407Z,4.47
2022-09-28T01:24:15.200Z,4.60
2022-09-28T01:26:56.959Z,3.87
2022-09-28T01:29:52.925Z,4.30
2022-09-28T01:32:50.575Z,4.90
2022-09-28T01:35:24.794Z,4.77
2022-09-28T01:37:58.398Z,6.13
2022-09-28T01:40:29.967Z,5.60
2022-09-28T01:43:04.498Z,5.70
2022-09-28T01:45:42.195Z,5.70
2022-09-28T01:48:13.249Z,5.17
2022-09-28T01:50:46.527Z,5.00
2022-09-28T01:53:22.522Z,5.10
2022-09-28T01:55:56.623Z,4.40
2022-09-28T01:58:33.503Z,3.90
2022-09-28T02:01:09.970Z,3.40
2022-09-28T02:03:47.951Z,2.60
2022-09-28T02:06:21.812Z,2.57
2022-09-28T02:08:53.998Z,2.20
2022-09-28T02:11:27.397Z,2.60
2022-09-28T02:14:04.890Z,2.23
2022-09-28T02:16:40.373Z,1.93
2022-09-28T02:19:12.764Z,1.83
2022-09-28T02:21:47.654Z,1.73
2022-09-28T02:24:23.998Z,1.63
2022-09-28T02:26:56.684Z,1.50
2022-09-28T02:29:26.986Z,1.20
2022-09-28T02:31:55.354Z,1.50
2022-09-28T02:34:23.689Z,1.07
2022-09-28T02:36:51.940Z,1.57
2022-09-28T02:39:21.649Z,1.07
2022-09-28T02:42:08.604Z,1.07
2022-09-28T02:45:08.967Z,1.43
2022-09-28T02:48:00.778Z,1.20
2022-09-28T02:50:40.699Z,1.20
2022-09-28T02:53:26.059Z,1.10
2022-09-28T02:56:19.771Z,1.30
2022-09-28T02:58:58.194Z,1.40
2022-09-28T03:01:35.421Z,1.50
2022-09-28T03:04:14.680Z,1.37
2022-09-28T03:06:48.400Z,1.80
2022-09-28T03:09:27.627Z,1.70
2022-09-28T03:12:01.989Z,1.80
2022-09-28T03:14:30.566Z,1.63
2022-09-28T03:17:01.109Z,1.93
2022-09-28T03:19:32.423Z,1.53
2022-09-28T03:22:02.042Z,1.40
2022-09-28T03:24:30.583Z,1.80
2022-09-28T03:26:58.978Z,1.30
2022-09-28T03:29:27.417Z,1.33
2022-09-28T03:32:03.304Z,1.00
2022-09-28T03:34:31.572Z,1.20
2022-09-28T03:37:00.088Z,1.03
2022-09-28T03:39:28.698Z,1.20
2022-09-28T03:41:57.187Z,1.13
2022-09-28T03:44:25.531Z,0.97
2022-09-28T03:46:53.912Z,1.00
2022-09-28T03:49:23.645Z,1.00
2022-09-28T03:51:52.152Z,0.90
2022-09-28T03:54:20.488Z,0.90
2022-09-28T03:56:48.759Z,0.90
2022-09-28T03:59:18.479Z,1.00
2022-09-28T04:01:49.689Z,0.90
2022-09-28T04:04:18.379Z,0.97
2022-09-28T04:06:48.548Z,0.77
2022-09-28T04:09:17.311Z,0.80
2022-09-28T04:12:03.430Z,0.80
2022-09-28T04:14:34.077Z,0.80
2022-09-28T04:17:02.380Z,1.00
2022-09-28T04:19:33.060Z,1.23
2022-09-28T04:22:41.255Z,1.10
2022-09-28T04:25:10.668Z,1.00
2022-09-28T04:27:56.526Z,1.10
2022-09-28T04:30:24.903Z,0.90
2022-09-28T04:32:54.141Z,0.90
2022-09-28T04:35:22.554Z,1.07
2022-09-28T04:37:52.522Z,1.10
2022-09-28T04:40:21.239Z,1.20
2022-09-28T04:42:56.066Z,1.40
2022-09-28T04:45:26.215Z,1.70
2022-09-28T04:47:56.597Z,1.47
2022-09-28T04:50:32.447Z,1.50
2022-09-28T04:53:26.603Z,1.67
2022-09-28T04:56:00.582Z,1.70
2022-09-28T04:58:30.146Z,1.53
2022-09-28T05:01:01.645Z,1.57
2022-09-28T05:03:56.532Z,1.53
2022-09-28T05:06:39.529Z,1.87
2022-09-28T05:09:10.557Z,1.90
2022-09-28T05:11:38.911Z,1.70
2022-09-28T05:14:13.172Z,1.90
2022-09-28T05:16:42.136Z,1.83
2022-09-28T05:19:31.362Z,1.70
2022-09-28T05:22:04.785Z,1.40
2022-09-28T05:24:40.625Z,1.43
2022-09-28T05:27:08.962Z,1.40
2022-09-28T05:29:37.310Z,1.60
2022-09-28T05:32:24.113Z,1.77
2022-09-28T05:35:21.853Z,1.60
2022-09-28T05:37:50.687Z,1.73
2022-09-28T05:40:20.504Z,1.90
2022-09-28T05:42:50.164Z,1.53
2022-09-28T05:45:18.562Z,2.13
2022-09-28T05:47:48.335Z,2.10
2022-09-28T05:50:20.151Z,1.87
2022-09-28T05:52:50.537Z,2.30
2022-09-28T05:55:20.374Z,1.87
2022-09-28T05:57:48.963Z,2.20
2022-09-28T06:00:18.881Z,2.00
2022-09-28T06:03:05.392Z,1.63
2022-09-28T06:05:37.118Z,2.03
2022-09-28T06:08:08.239Z,1.83
2022-09-28T06:10:38.508Z,1.90
2022-09-28T06:13:08.218Z,2.37
2022-09-28T06:15:39.058Z,2.30
2022-09-28T06:18:11.328Z,2.20
2022-09-28T06:20:52.844Z,2.30
2022-09-28T06:23:31.427Z,2.30
2022-09-28T06:26:01.965Z,2.10
2022-09-28T06:28:31.839Z,2.60
2022-09-28T06:31:01.988Z,3.03
2022-09-28T06:33:31.917Z,2.37
2022-09-28T06:36:00.925Z,3.20
2022-09-28T06:38:29.213Z,2.50
2022-09-28T06:40:58.908Z,2.33
2022-09-28T06:43:34.121Z,1.80
2022-09-28T06:46:15.131Z,2.03
2022-09-28T06:48:52.894Z,2.10
2022-09-28T06:51:34.830Z,1.70
2022-09-28T06:54:13.237Z,1.77
2022-09-28T06:56:44.185Z,1.67
2022-09-28T06:59:14.120Z,2.10
2022-09-28T07:01:42.681Z,1.80
2022-09-28T07:04:31.922Z,1.80
2022-09-28T07:07:18.653Z,5.43
2022-09-28T07:10:24.077Z,4.40
2022-09-28T07:13:43.110Z,43.50
2022-09-28T07:16:09.812Z,56.50
2022-09-28T07:18:38.139Z,45.83
2022-09-28T07:21:08.615Z,29.43
2022-09-28T07:23:48.932Z,12.73
2022-09-28T07:26:25.672Z,4.53
2022-09-28T07:28:56.974Z,2.93
2022-09-28T07:31:57.562Z,2.47
2022-09-28T07:34:28.696Z,6.60
2022-09-28T07:37:13.393Z,8.60
2022-09-28T07:39:59.578Z,3.90
2022-09-28T07:42:47.349Z,2.83
2022-09-28T07:45:16.050Z,5.23
2022-09-28T07:47:45.860Z,3.80
2022-09-28T07:50:29.935Z,2.87
2022-09-28T07:53:22.544Z,3.00
2022-09-28T07:56:18.281Z,2.63
2022-09-28T07:59:05.058Z,3.20
2022-09-28T08:01:52.093Z,2.50
2022-09-28T08:04:21.882Z,2.57
2022-09-28T08:06:50.369Z,2.47
2022-09-28T08:09:20.514Z,2.20
2022-09-28T08:12:09.141Z,2.10
2022-09-28T08:14:44.129Z,2.43
2022-09-28T08:17:48.582Z,2.30
2022-09-28T08:20:38.444Z,2.30
2022-09-28T08:23:08.422Z,2.27
2022-09-28T08:25:38.283Z,2.47
2022-09-28T08:28:08.239Z,1.63
2022-09-28T08:30:44.296Z,1.80
2022-09-28T08:33:47.938Z,1.60
2022-09-28T08:36:36.082Z,2.10
2022-09-28T08:39:30.378Z,1.40
2022-09-28T08:42:30.144Z,1.47
2022-09-28T08:45:26.977Z,1.30
2022-09-28T08:48:56.289Z,1.60
2022-09-28T08:51:55.392Z,1.23
2022-09-28T08:54:41.795Z,1.20
2022-09-28T08:57:22.991Z,0.90
2022-09-28T08:59:55.773Z,1.00
2022-09-28T09:02:33.650Z,1.07
2022-09-28T09:05:19.168Z,1.00
2022-09-28T09:08:26.788Z,1.00
2022-09-28T09:11:05.507Z,1.10
2022-09-28T09:14:01.304Z,1.20
2022-09-28T09:16:44.161Z,1.10
2022-09-28T09:19:54.490Z,0.97
2022-09-28T09:22:41.752Z,1.20
2022-09-28T09:25:24.544Z,0.90
2022-09-28T09:28:32.136Z,1.00
2022-09-28T09:31:22.567Z,0.80
2022-09-28T09:34:17.935Z,0.90
2022-09-28T09:37:05.891Z,1.30
2022-09-28T09:40:23.241Z,0.90
2022-09-28T09:43:35.362Z,1.10
2022-09-28T09:46:28.753Z,0.97
2022-09-28T09:49:26.033Z,0.90
2022-09-28T09:52:05.114Z,0.90
2022-09-28T09:54:40.605Z,1.00
2022-09-28T09:57:18.701Z,1.00
2022-09-28T09:59:54.076Z,1.10
2022-09-28T10:02:33.707Z,0.80
2022-09-28T10:05:25.522Z,0.80
2022-09-28T10:08:01.600Z,1.30
2022-09-28T10:10:35.077Z,1.03
2022-09-28T10:13:11.315Z,0.90
2022-09-28T10:15:43.400Z,1.00
2022-09-28T10:18:35.890Z,0.97
2022-09-28T10:21:25.359Z,0.77
2022-09-28T10:24:02.786Z,0.80
2022-09-28T10:26:36.795Z,1.00
2022-09-28T10:29:15.819Z,1.10
2022-09-28T10:31:48.989Z,0.93
2022-09-28T10:34:29.529Z,0.90
2022-09-28T10:37:05.468Z,1.20
2022-09-28T10:39:56.593Z,0.90
2022-09-28T10:42:30.975Z,1.10
2022-09-28T10:45:08.301Z,1.10
2022-09-28T10:47:38.467Z,1.00
2022-09-28T10:50:22.151Z,1.20
2022-09-28T10:52:53.209Z,1.00
2022-09-28T10:55:41.439Z,1.17
2022-09-28T10:58:28.032Z,1.00
2022-09-28T11:01:08.232Z,0.80
2022-09-28T11:03:52.971Z,0.60
2022-09-28T11:06:28.097Z,0.70
2022-09-28T11:09:00.023Z,0.70
2022-09-28T11:11:31.482Z,0.70
2022-09-28T11:14:06.571Z,0.97
2022-09-28T11:16:39.013Z,0.90
2022-09-28T11:19:29.444Z,1.07
2022-09-28T11:21:57.742Z,0.90
2022-09-28T11:24:38.105Z,1.00
2022-09-28T11:27:06.946Z,1.00
2022-09-28T11:29:39.948Z,1.00
2022-09-28T11:32:43.914Z,1.00
2022-09-28T11:35:46.980Z,0.80
2022-09-28T11:38:41.253Z,0.70
2022-09-28T11:41:50.896Z,0.70
2022-09-28T11:44:40.115Z,0.90
2022-09-28T11:47:51.218Z,0.90
2022-09-28T11:50:31.936Z,0.60
2022-09-28T11:53:14.733Z,0.60
2022-09-28T11:55:52.183Z,0.80
2022-09-28T11:58:28.871Z,0.67
2022-09-28T12:01:05.940Z,0.80
2022-09-28T12:04:03.155Z,0.60
2022-09-28T12:06:42.156Z,0.70
2022-09-28T12:09:18.195Z,0.80
2022-09-28T12:12:14.154Z,0.70
2022-09-28T12:14:48.516Z,0.60
2022-09-28T12:17:26.196Z,0.57
2022-09-28T12:20:04.983Z,0.83
2022-09-28T12:22:39.192Z,0.70
2022-09-28T12:25:15.672Z,0.70
2022-09-28T12:27:54.957Z,0.73
2022-09-28T12:30:25.740Z,0.70
2022-09-28T12:33:02.782Z,0.70
2022-09-28T12:35:41.841Z,0.80
2022-09-28T12:39:08.441Z,0.60
2022-09-28T12:41:52.496Z,0.70
2022-09-28T12:44:39.124Z,0.80
2022-09-28T12:47:40.312Z,0.60
2022-09-28T12:50:39.527Z,0.70
2022-09-28T12:53:38.828Z,0.80
2022-09-28T12:56:21.557Z,0.70
2022-09-28T12:59:06.015Z,0.80
2022-09-28T13:02:22.736Z,0.70
2022-09-28T13:05:25.678Z,0.70
2022-09-28T13:08:05.308Z,0.70
2022-09-28T13:10:43.079Z,0.70
2022-09-28T13:13:34.784Z,0.77
2022-09-28T13:16:12.790Z,0.70
2022-09-28T13:18:52.215Z,1.00
2022-09-28T13:21:33.037Z,1.00
2022-09-28T13:24:27.751Z,0.70
2022-09-28T13:26:58.232Z,0.80
2022-09-28T13:29:27.952Z,0.67
2022-09-28T13:32:02.006Z,0.80
2022-09-28T13:34:35.310Z,1.00
2022-09-28T13:37:22.005Z,0.87
2022-09-28T13:39:53.188Z,0.80
2022-09-28T13:43:05.348Z,0.67
2022-09-28T13:45:56.752Z,0.83
2022-09-28T13:48:42.532Z,0.80
2022-09-28T13:51:27.293Z,0.80
2022-09-28T13:54:17.223Z,0.70
2022-09-28T13:56:55.288Z,0.77
2022-09-28T13:59:28.457Z,0.70
2022-09-28T14:02:07.071Z,0.70
2022-09-28T14:04:58.957Z,0.80
2022-09-28T14:07:47.888Z,1.00
2022-09-28T14:10:22.259Z,0.67
2022-09-28T14:12:51.577Z,0.60
2022-09-28T14:15:49.749Z,0.67
2022-09-28T14:18:30.458Z,0.63
2022-09-28T14:21:29.387Z,0.60
2022-09-28T14:24:23.186Z,0.60
2022-09-28T14:27:14.047Z,0.60
2022-09-28T14:29:42.649Z,0.50
2022-09-28T14:32:36.142Z,0.60
2022-09-28T14:35:07.538Z,0.50
2022-09-28T14:37:56.805Z,0.50
2022-09-28T14:40:49.717Z,0.60
2022-09-28T14:43:28.257Z,0.70
2022-09-28T14:46:33.242Z,0.70
2022-09-28T14:49:07.907Z,0.50
2022-09-28T14:52:04.735Z,0.63
2022-09-28T14:54:54.387Z,0.60
2022-09-28T14:57:30.238Z,0.60
2022-09-28T15:00:00.688Z,0.60
2022-09-28T15:02:38.441Z,0.60
2022-09-28T15:05:25.529Z,0.67
2022-09-28T15:07:56.268Z,0.60
2022-09-28T15:10:32.271Z,0.70
2022-09-28T15:13:04.034Z,0.60
2022-09-28T15:15:38.251Z,0.87
2022-09-28T15:18:58.845Z,0.60
2022-09-28T15:21:36.709Z,0.50
2022-09-28T15:24:27.195Z,0.80
2022-09-28T15:26:56.786Z,0.80
2022-09-28T15:29:31.014Z,0.60
2022-09-28T15:31:59.702Z,0.60
2022-09-28T15:34:48.529Z,0.50
2022-09-28T15:37:22.567Z,0.57
2022-09-28T15:39:53.302Z,0.57
2022-09-28T15:42:22.863Z,0.50
2022-09-28T15:45:24.869Z,0.63
2022-09-28T15:48:18.213Z,0.50
2022-09-28T15:51:05.120Z,0.50
2022-09-28T15:53:35.248Z,0.70
2022-09-28T15:56:10.227Z,0.60
2022-09-28T15:58:39.396Z,0.60
2022-09-28T16:01:37.037Z,0.77
2022-09-28T16:04:44.295Z,0.63
2022-09-28T16:07:25.572Z,0.70
2022-09-28T16:10:31.266Z,0.70
2022-09-28T16:13:15.814Z,0.70
2022-09-28T16:15:44.745Z,0.60
2022-09-28T16:18:23.518Z,0.67
2022-09-28T16:20:54.015Z,0.60
2022-09-28T16:23:27.958Z,0.60
2022-09-28T16:26:02.708Z,0.70
2022-09-28T16:28:52.064Z,0.80
2022-09-28T16:31:34.466Z,0.80
2022-09-28T16:34:20.087Z,0.70
2022-09-28T16:36:50.649Z,0.80
2022-09-28T16:39:20.619Z,0.70
2022-09-28T16:41:56.904Z,0.70
2022-09-28T16:44:28.641Z,0.70
2022-09-28T16:47:00.675Z,0.87
2022-09-28T16:49:32.171Z,1.20
2022-09-28T16:52:01.917Z,1.03
2022-09-28T16:54:48.266Z,1.00
2022-09-28T16:57:18.089Z,1.20
2022-09-28T16:59:46.359Z,1.10
2022-09-28T17:02:45.090Z,1.10
2022-09-28T17:05:11.148Z,0.97
2022-09-28T17:07:39.914Z,1.10
2022-09-28T17:10:19.367Z,0.90
2022-09-28T17:12:49.069Z,0.90
2022-09-28T17:15:19.672Z,0.93
2022-09-28T17:17:49.428Z,1.20
2022-09-28T17:20:22.848Z,1.10
2022-09-28T17:22:52.128Z,1.07
2022-09-28T17:25:21.415Z,1.20
2022-09-28T17:27:51.854Z,1.10
2022-09-28T17:30:23.606Z,1.30
2022-09-28T17:32:55.235Z,1.20
2022-09-28T17:35:24.981Z,0.97
2022-09-28T17:37:54.006Z,1.20
2022-09-28T17:40:24.676Z,1.40
2022-09-28T17:42:57.836Z,1.20
2022-09-28T17:45:31.322Z,1.30
2022-09-28T17:48:00.681Z,5.80
2022-09-28T17:50:32.404Z,3.00
2022-09-28T17:53:06.038Z,1.67
2022-09-28T17:55:36.685Z,2.10
2022-09-28T17:58:17.878Z,1.77
2022-09-28T18:00:48.348Z,2.10
2022-09-28T18:03:18.829Z,1.77
2022-09-28T18:05:49.837Z,1.80
2022-09-28T18:08:21.593Z,5.70
2022-09-28T18:10:52.278Z,3.30
2022-09-28T18:13:22.113Z,2.13
2022-09-28T18:15:52.818Z,2.13
2022-09-28T18:18:22.001Z,1.90
2022-09-28T18:20:53.162Z,1.63
2022-09-28T18:23:21.585Z,2.50
2022-09-28T18:25:49.985Z,2.17
2022-09-28T18:28:18.347Z,4.20
2022-09-28T18:30:48.129Z,7.43
2022-09-28T18:33:16.613Z,4.90
2022-09-28T18:35:53.568Z,2.40
2022-09-28T18:38:22.271Z,2.37
2022-09-28T18:40:50.876Z,2.13
2022-09-28T18:43:19.320Z,2.00
2022-09-28T18:45:49.641Z,2.83
2022-09-28T18:48:18.039Z,9.87
2022-09-28T18:50:46.423Z,5.80
2022-09-28T18:53:15.108Z,3.47
2022-09-28T18:55:44.712Z,2.87
2022-09-28T18:58:13.686Z,2.80
2022-09-28T19:00:43.453Z,2.40
2022-09-28T19:03:14.418Z,2.20
2022-09-28T19:05:43.953Z,2.00
2022-09-28T19:08:12.391Z,2.67
2022-09-28T19:10:40.812Z,2.40
2022-09-28T19:13:09.521Z,2.60
2022-09-28T19:15:38.694Z,2.50
2022-09-28T19:18:07.248Z,5.70
2022-09-28T19:20:37.023Z,5.87
2022-09-28T19:23:05.826Z,4.07
2022-09-28T19:25:35.403Z,3.40
2022-09-28T19:28:03.939Z,3.63
2022-09-28T19:30:32.277Z,3.20
2022-09-28T19:33:00.845Z,4.17
2022-09-28T19:35:29.461Z,4.70
2022-09-28T19:37:59.357Z,3.20
2022-09-28T19:40:27.700Z,3.10
2022-09-28T19:42:56.088Z,3.57
2022-09-28T19:45:24.564Z,4.00
2022-09-28T19:47:57.312Z,4.20
2022-09-28T19:50:27.641Z,4.33
2022-09-28T19:52:57.155Z,4.60
2022-09-28T19:55:35.235Z,5.20
2022-09-28T19:58:05.004Z,9.27
2022-09-28T20:00:33.320Z,7.33
2022-09-28T20:03:01.673Z,5.57
2022-09-28T20:05:30.071Z,5.90
2022-09-28T20:07:58.559Z,4.87
2022-09-28T20:10:30.170Z,5.23
2022-09-28T20:12:58.982Z,4.10
2022-09-28T20:15:28.231Z,4.40
2022-09-28T20:17:58.737Z,4.20
2022-09-28T20:20:28.010Z,3.73
2022-09-28T20:22:56.391Z,4.17
2022-09-28T20:25:25.591Z,3.17
2022-09-28T20:27:55.781Z,3.30
2022-09-28T20:30:24.280Z,3.10
2022-09-28T20:32:52.757Z,3.27
2022-09-28T20:35:32.315Z,3.20
2022-09-28T20:38:08.114Z,3.57
2022-09-28T20:40:36.628Z,3.53
2022-09-28T20:43:08.283Z,4.03
2022-09-28T20:45:38.137Z,4.43
2022-09-28T20:48:06.904Z,4.40
2022-09-28T20:50:35.724Z,4.97
2022-09-28T20:53:04.028Z,4.47
2022-09-28T20:55:32.356Z,4.80
2022-09-28T20:58:04.539Z,4.73
2022-09-28T21:00:34.381Z,5.00
2022-09-28T21:03:02.825Z,5.10
2022-09-28T21:05:31.207Z,9.23
2022-09-28T21:08:00.024Z,13.17
2022-09-28T21:10:30.281Z,6.93
2022-09-28T21:12:58.741Z,4.30
2022-09-28T21:15:29.551Z,7.43
2022-09-28T21:17:59.491Z,6.50
2022-09-28T21:20:27.913Z,5.47
2022-09-28T21:22:56.233Z,4.90
2022-09-28T21:25:24.691Z,4.90
2022-09-28T21:27:53.975Z,4.00
2022-09-28T21:30:22.236Z,4.73
2022-09-28T21:32:52.161Z,4.70
2022-09-28T21:35:21.827Z,5.13
2022-09-28T21:37:50.943Z,4.33
2022-09-28T21:40:19.985Z,4.90
2022-09-28T21:42:48.331Z,4.60
2022-09-28T21:45:17.367Z,4.57
2022-09-28T21:47:52.653Z,4.67
2022-09-28T21:50:25.108Z,5.40
2022-09-28T21:52:55.093Z,4.73
2022-09-28T21:55:24.922Z,5.33
2022-09-28T21:57:53.276Z,4.73
2022-09-28T22:00:24.330Z,4.13
2022-09-28T22:02:53.101Z,4.87
2022-09-28T22:05:22.892Z,4.93
2022-09-28T22:07:51.203Z,5.10
2022-09-28T22:10:19.667Z,5.40
2022-09-28T22:12:47.940Z,5.33
2022-09-28T22:15:16.463Z,5.27
2022-09-28T22:17:45.021Z,5.17
2022-09-28T22:20:13.344Z,5.60
2022-09-28T22:22:43.054Z,5.73
2022-09-28T22:25:11.506Z,5.97
2022-09-28T22:27:40.126Z,5.80
2022-09-28T22:30:09.958Z,6.10
2022-09-28T22:32:38.245Z,5.17
2022-09-28T22:35:08.361Z,5.07
2022-09-28T22:37:36.618Z,5.00
2022-09-28T22:40:07.777Z,5.60
2022-09-28T22:42:36.191Z,5.37
2022-09-28T22:45:05.191Z,5.10
2022-09-28T22:47:33.654Z,6.60
2022-09-28T22:50:01.985Z,6.20
2022-09-28T22:52:30.401Z,6.17
2022-09-28T22:54:58.916Z,6.07
2022-09-28T22:57:28.853Z,5.87
2022-09-28T22:59:57.206Z,6.07
2022-09-28T23:02:25.718Z,6.80
2022-09-28T23:04:54.075Z,5.80
2022-09-28T23:07:22.442Z,6.60
2022-09-28T23:09:53.297Z,7.43
2022-09-28T23:12:21.750Z,7.50
2022-09-28T23:14:52.274Z,7.10
2022-09-28T23:17:20.902Z,6.80
2022-09-28T23:19:49.425Z,6.43
2022-09-28T23:22:17.833Z,7.30
2022-09-28T23:24:46.363Z,7.70
2022-09-28T23:27:14.633Z,8.30
2022-09-28T23:29:46.850Z,7.70
2022-09-28T23:32:17.553Z,6.90
2022-09-28T23:34:45.990Z,6.33
2022-09-28T23:37:14.380Z,7.07
2022-09-28T23:39:43.675Z,6.53
2022-09-28T23:42:12.418Z,6.20
2022-09-28T23:44:40.842Z,6.57
2022-09-28T23:47:09.218Z,6.50
2022-09-28T23:49:39.334Z,6.20
2022-09-28T23:52:07.823Z,6.13
2022-09-28T23:54:36.289Z,6.27
2022-09-28T23:57:04.973Z,6.47
2022-09-28T23:59:33.501Z,6.27
